EWG334 LIRN-LIMJ
Flight info
| Callsign | EWG334 |
|---|---|
| Flight time | 1h 3m |
| Altitude | 34000 |
| Route | VEXUV DCT PNZ DCT LUNAK DCT RAVAL DCT ELB DCT NORNI DCT BETEN M729 IDONA |
| Aircraft | A320/M-SDE3FGHIRWY/LB1 |
Departure
| Time | 2026-04-20 12:46 |
|---|---|
| Airport | Naples International Airport (LIRN) |
Arrival
| Time | 2026-04-20 13:50 |
|---|---|
| Airport | Genoa Cristoforo Colombo Airport (LIMJ) |
| Time | Latitude | Longitude | Altitude | Speed | Heading |
|---|---|---|---|---|---|
| 2026-04-20 12:33 | 40.88010 | 14.28380 | 288 ft | 0 kts | 334° |
| 2026-04-20 12:42 | 40.88043 | 14.28391 | 292 ft | 11 kts | 54° |
| 2026-04-20 12:42 | 40.88040 | 14.28544 | 285 ft | 23 kts | 99° |
| 2026-04-20 12:43 | 40.88092 | 14.28677 | 282 ft | 16 kts | 57° |
| 2026-04-20 12:43 | 40.88169 | 14.28820 | 278 ft | 22 kts | 50° |
| 2026-04-20 12:43 | 40.88275 | 14.29006 | 274 ft | 29 kts | 50° |
| 2026-04-20 12:43 | 40.88406 | 14.29238 | 268 ft | 35 kts | 54° |
| 2026-04-20 12:44 | 40.88566 | 14.29510 | 260 ft | 40 kts | 53° |
| 2026-04-20 12:44 | 40.88683 | 14.29715 | 254 ft | 44 kts | 51° |
| 2026-04-20 12:44 | 40.88874 | 14.30049 | 243 ft | 38 kts | 52° |
| 2026-04-20 12:44 | 40.89046 | 14.30338 | 233 ft | 34 kts | 52° |
| 2026-04-20 12:45 | 40.89187 | 14.30454 | 226 ft | 13 kts | 313° |
| 2026-04-20 12:45 | 40.89189 | 14.30310 | 231 ft | 14 kts | 241° |
| 2026-04-20 12:45 | 40.89176 | 14.30281 | 231 ft | 17 kts | 237° |
| 2026-04-20 12:45 | 40.88968 | 14.29854 | 246 ft | 90 kts | 237° |
| 2026-04-20 12:46 | 40.88540 | 14.28936 | 274 ft | 140 kts | 237° |
| 2026-04-20 12:46 | 40.88012 | 14.27838 | 620 ft | 142 kts | 234° |
| 2026-04-20 12:46 | 40.87488 | 14.26712 | 1068 ft | 153 kts | 222° |
| 2026-04-20 12:46 | 40.86495 | 14.26186 | 1569 ft | 163 kts | 181° |
| 2026-04-20 12:47 | 40.85343 | 14.26397 | 1968 ft | 177 kts | 173° |
| 2026-04-20 12:47 | 40.84076 | 14.26638 | 2475 ft | 184 kts | 175° |
| 2026-04-20 12:47 | 40.82793 | 14.26612 | 2880 ft | 193 kts | 200° |
| 2026-04-20 12:47 | 40.81669 | 14.25624 | 3276 ft | 202 kts | 235° |
| 2026-04-20 12:48 | 40.81214 | 14.23852 | 3696 ft | 214 kts | 271° |
| 2026-04-20 12:48 | 40.81740 | 14.21981 | 4140 ft | 229 kts | 308° |
| 2026-04-20 12:48 | 40.82846 | 14.20403 | 4707 ft | 238 kts | 312° |
| 2026-04-20 12:48 | 40.84004 | 14.18818 | 5456 ft | 240 kts | 311° |
| 2026-04-20 12:49 | 40.85160 | 14.17239 | 6258 ft | 239 kts | 311° |
| 2026-04-20 12:49 | 40.86315 | 14.15651 | 6988 ft | 240 kts | 311° |
| 2026-04-20 12:49 | 40.87472 | 14.14045 | 7712 ft | 242 kts | 311° |
| 2026-04-20 12:49 | 40.88631 | 14.12428 | 8443 ft | 243 kts | 311° |
| 2026-04-20 12:50 | 40.89816 | 14.10767 | 9023 ft | 256 kts | 311° |
| 2026-04-20 12:50 | 40.91067 | 14.09009 | 9562 ft | 268 kts | 311° |
| 2026-04-20 12:50 | 40.92352 | 14.07209 | 10299 ft | 271 kts | 311° |
| 2026-04-20 12:50 | 40.93681 | 14.05345 | 10754 ft | 286 kts | 311° |
| 2026-04-20 12:51 | 40.95103 | 14.03344 | 11127 ft | 303 kts | 311° |
| 2026-04-20 12:51 | 40.96568 | 14.01280 | 11447 ft | 320 kts | 311° |
| 2026-04-20 12:51 | 40.98151 | 13.99051 | 11771 ft | 336 kts | 311° |
| 2026-04-20 12:51 | 40.99772 | 13.96772 | 12318 ft | 343 kts | 311° |
| 2026-04-20 12:52 | 41.01412 | 13.94472 | 12997 ft | 346 kts | 312° |
| 2026-04-20 12:52 | 41.03068 | 13.92146 | 13676 ft | 349 kts | 312° |
| 2026-04-20 12:52 | 41.04738 | 13.89793 | 14283 ft | 352 kts | 312° |
| 2026-04-20 12:52 | 41.06420 | 13.87416 | 14874 ft | 354 kts | 311° |
| 2026-04-20 12:53 | 41.08111 | 13.85025 | 15483 ft | 357 kts | 311° |
| 2026-04-20 12:53 | 41.09816 | 13.82614 | 16081 ft | 359 kts | 311° |
| 2026-04-20 12:53 | 41.11529 | 13.80195 | 16686 ft | 361 kts | 312° |
| 2026-04-20 12:53 | 41.13254 | 13.77757 | 17276 ft | 364 kts | 311° |
| 2026-04-20 12:54 | 41.14992 | 13.75295 | 17870 ft | 366 kts | 311° |
| 2026-04-20 12:54 | 41.16737 | 13.72817 | 18441 ft | 369 kts | 311° |
| 2026-04-20 12:54 | 41.18471 | 13.70355 | 18940 ft | 371 kts | 311° |
| 2026-04-20 12:54 | 41.20264 | 13.67811 | 19468 ft | 373 kts | 311° |
| 2026-04-20 12:55 | 41.22026 | 13.65307 | 19978 ft | 375 kts | 311° |
| 2026-04-20 12:55 | 41.23813 | 13.62762 | 20486 ft | 377 kts | 311° |
| 2026-04-20 12:55 | 41.25587 | 13.60232 | 20967 ft | 379 kts | 311° |
| 2026-04-20 12:55 | 41.27079 | 13.58105 | 21375 ft | 379 kts | 311° |
| 2026-04-20 12:56 | 41.28884 | 13.55530 | 21820 ft | 382 kts | 311° |
| 2026-04-20 12:56 | 41.30704 | 13.52936 | 22294 ft | 384 kts | 311° |
| 2026-04-20 12:56 | 41.32525 | 13.50333 | 22711 ft | 387 kts | 311° |
| 2026-04-20 12:56 | 41.34363 | 13.47704 | 23151 ft | 388 kts | 311° |
| 2026-04-20 12:57 | 41.36208 | 13.45060 | 23585 ft | 390 kts | 311° |
| 2026-04-20 12:57 | 41.38059 | 13.42408 | 23940 ft | 392 kts | 311° |
| 2026-04-20 12:57 | 41.39913 | 13.39749 | 24284 ft | 393 kts | 311° |
| 2026-04-20 12:57 | 41.41778 | 13.37073 | 24637 ft | 394 kts | 312° |
| 2026-04-20 12:58 | 41.43645 | 13.34395 | 25009 ft | 395 kts | 311° |
| 2026-04-20 12:58 | 41.45524 | 13.31700 | 25356 ft | 397 kts | 311° |
| 2026-04-20 12:58 | 41.47380 | 13.29033 | 25672 ft | 398 kts | 311° |
| 2026-04-20 12:58 | 41.49287 | 13.26287 | 25981 ft | 399 kts | 311° |
| 2026-04-20 12:59 | 41.51201 | 13.23522 | 26283 ft | 401 kts | 311° |
| 2026-04-20 12:59 | 41.53099 | 13.20776 | 26573 ft | 402 kts | 311° |
| 2026-04-20 12:59 | 41.54977 | 13.18061 | 26869 ft | 404 kts | 311° |
| 2026-04-20 12:59 | 41.56887 | 13.15301 | 27158 ft | 405 kts | 311° |
| 2026-04-20 13:00 | 41.58799 | 13.12535 | 27425 ft | 406 kts | 311° |
| 2026-04-20 13:00 | 41.60717 | 13.09753 | 27697 ft | 407 kts | 311° |
| 2026-04-20 13:00 | 41.62638 | 13.06963 | 27950 ft | 409 kts | 311° |
| 2026-04-20 13:00 | 41.64592 | 13.04126 | 28208 ft | 410 kts | 311° |
| 2026-04-20 13:01 | 41.66503 | 13.01355 | 28472 ft | 411 kts | 312° |
| 2026-04-20 13:01 | 41.68464 | 12.98506 | 28711 ft | 412 kts | 311° |
| 2026-04-20 13:01 | 41.70407 | 12.95677 | 28935 ft | 413 kts | 311° |
| 2026-04-20 13:01 | 41.72354 | 12.92841 | 29219 ft | 413 kts | 311° |
| 2026-04-20 13:02 | 41.74292 | 12.90018 | 29530 ft | 411 kts | 311° |
| 2026-04-20 13:02 | 41.76220 | 12.87206 | 29839 ft | 410 kts | 311° |
| 2026-04-20 13:02 | 41.78149 | 12.84389 | 30134 ft | 409 kts | 311° |
| 2026-04-20 13:02 | 41.80046 | 12.81616 | 30386 ft | 408 kts | 311° |
| 2026-04-20 13:03 | 41.81961 | 12.78815 | 30653 ft | 407 kts | 311° |
| 2026-04-20 13:03 | 41.83422 | 12.76675 | 30855 ft | 407 kts | 311° |
| 2026-04-20 13:03 | 41.85337 | 12.73870 | 31118 ft | 406 kts | 311° |
| 2026-04-20 13:03 | 41.87243 | 12.71077 | 31385 ft | 405 kts | 311° |
| 2026-04-20 13:04 | 41.89136 | 12.68298 | 31641 ft | 404 kts | 311° |
| 2026-04-20 13:04 | 41.91025 | 12.65519 | 31921 ft | 403 kts | 311° |
| 2026-04-20 13:04 | 41.92915 | 12.62734 | 32165 ft | 402 kts | 311° |
| 2026-04-20 13:04 | 41.94638 | 12.60191 | 32391 ft | 401 kts | 311° |
| 2026-04-20 13:05 | 41.96514 | 12.57416 | 32642 ft | 400 kts | 311° |
| 2026-04-20 13:05 | 41.98388 | 12.54652 | 32894 ft | 399 kts | 311° |
| 2026-04-20 13:05 | 42.00248 | 12.51905 | 33154 ft | 398 kts | 311° |
| 2026-04-20 13:05 | 42.02114 | 12.49147 | 33406 ft | 397 kts | 311° |
| 2026-04-20 13:06 | 42.03972 | 12.46395 | 33648 ft | 397 kts | 311° |
| 2026-04-20 13:06 | 42.05826 | 12.43651 | 33897 ft | 396 kts | 311° |
| 2026-04-20 13:06 | 42.07055 | 12.41833 | 33996 ft | 396 kts | 311° |
| 2026-04-20 13:07 | 42.10895 | 12.36138 | 34019 ft | 397 kts | 311° |
| 2026-04-20 13:07 | 42.14604 | 12.30617 | 34013 ft | 397 kts | 311° |
| 2026-04-20 13:08 | 42.18269 | 12.25152 | 34045 ft | 397 kts | 311° |
| 2026-04-20 13:08 | 42.21955 | 12.19649 | 34017 ft | 397 kts | 311° |
| 2026-04-20 13:09 | 42.25675 | 12.14097 | 34022 ft | 397 kts | 310° |
| 2026-04-20 13:09 | 42.29403 | 12.08514 | 34020 ft | 397 kts | 310° |
| 2026-04-20 13:10 | 42.33108 | 12.02949 | 34024 ft | 398 kts | 310° |
| 2026-04-20 13:10 | 42.36779 | 11.97415 | 34028 ft | 398 kts | 310° |
| 2026-04-20 13:11 | 42.40473 | 11.91846 | 34026 ft | 398 kts | 310° |
| 2026-04-20 13:11 | 42.44208 | 11.86203 | 34024 ft | 398 kts | 310° |
| 2026-04-20 13:12 | 42.47926 | 11.80687 | 34024 ft | 398 kts | 312° |
| 2026-04-20 13:12 | 42.51805 | 11.75409 | 34023 ft | 398 kts | 314° |
| 2026-04-20 13:13 | 42.55796 | 11.70110 | 34015 ft | 398 kts | 313° |
| 2026-04-20 13:13 | 42.59751 | 11.64771 | 34010 ft | 398 kts | 313° |
| 2026-04-20 13:14 | 42.63680 | 11.59403 | 34012 ft | 398 kts | 313° |
| 2026-04-20 13:14 | 42.67578 | 11.54046 | 34011 ft | 398 kts | 313° |
| 2026-04-20 13:15 | 42.71470 | 11.48693 | 34009 ft | 399 kts | 313° |
| 2026-04-20 13:15 | 42.75371 | 11.43322 | 34003 ft | 399 kts | 313° |
| 2026-04-20 13:16 | 42.79276 | 11.37947 | 34000 ft | 399 kts | 313° |
| 2026-04-20 13:16 | 42.83181 | 11.32568 | 34005 ft | 399 kts | 313° |
| 2026-04-20 13:17 | 42.86193 | 11.28414 | 34004 ft | 399 kts | 313° |
| 2026-04-20 13:17 | 42.90084 | 11.23021 | 34007 ft | 399 kts | 313° |
| 2026-04-20 13:18 | 42.93966 | 11.17618 | 34014 ft | 399 kts | 313° |
| 2026-04-20 13:18 | 42.97853 | 11.12216 | 34008 ft | 399 kts | 313° |
| 2026-04-20 13:19 | 43.01787 | 11.06739 | 34000 ft | 399 kts | 312° |
| 2026-04-20 13:19 | 43.05637 | 11.01373 | 34008 ft | 400 kts | 312° |
| 2026-04-20 13:20 | 43.09507 | 10.95954 | 33997 ft | 400 kts | 312° |
| 2026-04-20 13:20 | 43.13435 | 10.90464 | 34003 ft | 400 kts | 312° |
| 2026-04-20 13:21 | 43.17277 | 10.85076 | 33996 ft | 400 kts | 312° |
| 2026-04-20 13:21 | 43.21173 | 10.79596 | 33994 ft | 399 kts | 312° |
| 2026-04-20 13:22 | 43.25051 | 10.74135 | 33997 ft | 399 kts | 312° |
| 2026-04-20 13:22 | 43.28936 | 10.68650 | 34000 ft | 399 kts | 312° |
| 2026-04-20 13:23 | 43.32769 | 10.63222 | 33997 ft | 398 kts | 312° |
| 2026-04-20 13:23 | 43.36189 | 10.58366 | 33987 ft | 398 kts | 312° |
| 2026-04-20 13:24 | 43.40046 | 10.52891 | 33990 ft | 398 kts | 312° |
| 2026-04-20 13:24 | 43.43895 | 10.47418 | 34003 ft | 398 kts | 311° |
| 2026-04-20 13:25 | 43.47749 | 10.41930 | 34003 ft | 398 kts | 311° |
| 2026-04-20 13:25 | 43.51597 | 10.36443 | 34006 ft | 398 kts | 311° |
| 2026-04-20 13:26 | 43.55439 | 10.30950 | 34007 ft | 398 kts | 311° |
| 2026-04-20 13:26 | 43.57361 | 10.28195 | 33899 ft | 398 kts | 311° |
| 2026-04-20 13:26 | 43.59278 | 10.25448 | 33633 ft | 397 kts | 311° |
| 2026-04-20 13:26 | 43.61197 | 10.22691 | 33345 ft | 398 kts | 311° |
| 2026-04-20 13:27 | 43.63114 | 10.19926 | 33076 ft | 399 kts | 311° |
| 2026-04-20 13:27 | 43.65036 | 10.17154 | 32792 ft | 400 kts | 311° |
| 2026-04-20 13:27 | 43.66963 | 10.14372 | 31932 ft | 402 kts | 311° |
| 2026-04-20 13:27 | 43.68857 | 10.11640 | 31085 ft | 402 kts | 311° |
| 2026-04-20 13:28 | 43.70769 | 10.08888 | 30257 ft | 402 kts | 311° |
| 2026-04-20 13:28 | 43.72739 | 10.06050 | 29185 ft | 405 kts | 311° |
| 2026-04-20 13:28 | 43.74704 | 10.03213 | 28183 ft | 406 kts | 311° |
| 2026-04-20 13:28 | 43.76664 | 10.00384 | 27299 ft | 405 kts | 311° |
| 2026-04-20 13:29 | 43.78596 | 9.97596 | 26735 ft | 398 kts | 311° |
| 2026-04-20 13:29 | 43.80496 | 9.94850 | 26109 ft | 393 kts | 311° |
| 2026-04-20 13:29 | 43.82374 | 9.92124 | 25485 ft | 389 kts | 311° |
| 2026-04-20 13:29 | 43.84231 | 9.89417 | 24889 ft | 385 kts | 311° |
| 2026-04-20 13:30 | 43.86069 | 9.86738 | 24294 ft | 382 kts | 311° |
| 2026-04-20 13:30 | 43.87894 | 9.84078 | 23700 ft | 379 kts | 311° |
| 2026-04-20 13:30 | 43.89703 | 9.81442 | 23070 ft | 377 kts | 311° |
| 2026-04-20 13:30 | 43.91489 | 9.78838 | 22520 ft | 373 kts | 311° |
| 2026-04-20 13:31 | 43.93293 | 9.76206 | 21965 ft | 369 kts | 311° |
| 2026-04-20 13:31 | 43.95030 | 9.73669 | 21436 ft | 366 kts | 310° |
| 2026-04-20 13:31 | 43.96773 | 9.71120 | 20935 ft | 362 kts | 310° |
| 2026-04-20 13:31 | 43.98500 | 9.68593 | 20429 ft | 360 kts | 310° |
| 2026-04-20 13:32 | 44.00215 | 9.66084 | 19961 ft | 357 kts | 310° |
| 2026-04-20 13:32 | 44.01925 | 9.63581 | 19485 ft | 356 kts | 310° |
| 2026-04-20 13:32 | 44.03615 | 9.61103 | 19035 ft | 354 kts | 310° |
| 2026-04-20 13:32 | 44.05297 | 9.58632 | 18603 ft | 352 kts | 310° |
| 2026-04-20 13:33 | 44.06983 | 9.56150 | 18152 ft | 350 kts | 310° |
| 2026-04-20 13:33 | 44.08650 | 9.53692 | 17694 ft | 349 kts | 310° |
| 2026-04-20 13:33 | 44.10310 | 9.51244 | 17258 ft | 347 kts | 310° |
| 2026-04-20 13:33 | 44.11911 | 9.48879 | 16840 ft | 345 kts | 310° |
| 2026-04-20 13:34 | 44.13603 | 9.46378 | 16399 ft | 343 kts | 311° |
| 2026-04-20 13:34 | 44.15235 | 9.43966 | 15861 ft | 343 kts | 311° |
| 2026-04-20 13:34 | 44.16888 | 9.41523 | 15044 ft | 350 kts | 311° |
| 2026-04-20 13:34 | 44.18531 | 9.39095 | 14822 ft | 332 kts | 311° |
| 2026-04-20 13:35 | 44.20057 | 9.36839 | 14607 ft | 311 kts | 311° |
| 2026-04-20 13:35 | 44.21509 | 9.34691 | 14126 ft | 300 kts | 311° |
| 2026-04-20 13:35 | 44.22897 | 9.32632 | 13488 ft | 296 kts | 311° |
| 2026-04-20 13:35 | 44.24332 | 9.30501 | 12733 ft | 294 kts | 311° |
| 2026-04-20 13:36 | 44.25716 | 9.28447 | 11985 ft | 292 kts | 311° |
| 2026-04-20 13:36 | 44.26914 | 9.26626 | 11354 ft | 290 kts | 307° |
| 2026-04-20 13:36 | 44.27912 | 9.24156 | 10633 ft | 286 kts | 288° |
| 2026-04-20 13:36 | 44.28263 | 9.21860 | 10030 ft | 285 kts | 273° |
| 2026-04-20 13:37 | 44.28221 | 9.19088 | 9242 ft | 284 kts | 268° |
| 2026-04-20 13:37 | 44.28140 | 9.16381 | 8495 ft | 283 kts | 268° |
| 2026-04-20 13:37 | 44.28066 | 9.13666 | 7767 ft | 281 kts | 268° |
| 2026-04-20 13:37 | 44.27992 | 9.10886 | 7074 ft | 278 kts | 268° |
| 2026-04-20 13:38 | 44.27921 | 9.08289 | 6716 ft | 263 kts | 268° |
| 2026-04-20 13:38 | 44.27853 | 9.05789 | 6440 ft | 248 kts | 268° |
| 2026-04-20 13:38 | 44.27790 | 9.03435 | 6198 ft | 233 kts | 267° |
| 2026-04-20 13:38 | 44.27730 | 9.01260 | 6058 ft | 222 kts | 267° |
| 2026-04-20 13:39 | 44.27669 | 8.99090 | 5996 ft | 223 kts | 267° |
| 2026-04-20 13:39 | 44.27609 | 8.96933 | 6002 ft | 220 kts | 267° |
| 2026-04-20 13:39 | 44.27549 | 8.94817 | 6016 ft | 218 kts | 267° |
| 2026-04-20 13:39 | 44.27491 | 8.92746 | 6012 ft | 217 kts | 267° |
| 2026-04-20 13:40 | 44.27430 | 8.90604 | 6008 ft | 218 kts | 267° |
| 2026-04-20 13:40 | 44.27369 | 8.88490 | 6007 ft | 217 kts | 267° |
| 2026-04-20 13:40 | 44.27307 | 8.86383 | 6011 ft | 217 kts | 267° |
| 2026-04-20 13:40 | 44.27243 | 8.84279 | 6008 ft | 217 kts | 267° |
| 2026-04-20 13:41 | 44.27181 | 8.82172 | 6033 ft | 217 kts | 267° |
| 2026-04-20 13:41 | 44.27118 | 8.80100 | 6020 ft | 216 kts | 267° |
| 2026-04-20 13:41 | 44.27053 | 8.77974 | 6000 ft | 216 kts | 267° |
| 2026-04-20 13:41 | 44.26990 | 8.75905 | 6008 ft | 216 kts | 267° |
| 2026-04-20 13:42 | 44.26927 | 8.73807 | 6008 ft | 217 kts | 267° |
| 2026-04-20 13:42 | 44.26934 | 8.69615 | 5993 ft | 217 kts | 281° |
| 2026-04-20 13:42 | 44.27319 | 8.67580 | 5872 ft | 217 kts | 285° |
| 2026-04-20 13:43 | 44.27713 | 8.65557 | 5746 ft | 213 kts | 284° |
| 2026-04-20 13:43 | 44.28092 | 8.63602 | 5574 ft | 206 kts | 284° |
| 2026-04-20 13:43 | 44.28496 | 8.61693 | 5299 ft | 204 kts | 293° |
| 2026-04-20 13:43 | 44.29402 | 8.60230 | 5003 ft | 201 kts | 329° |
| 2026-04-20 13:44 | 44.30723 | 8.59743 | 4704 ft | 197 kts | 4° |
| 2026-04-20 13:44 | 44.32054 | 8.60162 | 4396 ft | 196 kts | 17° |
| 2026-04-20 13:44 | 44.33371 | 8.60665 | 4086 ft | 196 kts | 17° |
| 2026-04-20 13:44 | 44.34617 | 8.61397 | 3773 ft | 192 kts | 36° |
| 2026-04-20 13:45 | 44.35578 | 8.62580 | 3488 ft | 177 kts | 55° |
| 2026-04-20 13:45 | 44.36220 | 8.63997 | 3247 ft | 172 kts | 64° |
| 2026-04-20 13:45 | 44.36813 | 8.65438 | 2982 ft | 168 kts | 64° |
| 2026-04-20 13:45 | 44.37382 | 8.66806 | 2774 ft | 156 kts | 64° |
| 2026-04-20 13:46 | 44.37909 | 8.68067 | 2531 ft | 146 kts | 64° |
| 2026-04-20 13:46 | 44.38407 | 8.69268 | 2314 ft | 144 kts | 65° |
| 2026-04-20 13:46 | 44.38905 | 8.70480 | 2101 ft | 145 kts | 65° |
| 2026-04-20 13:46 | 44.39400 | 8.71692 | 1889 ft | 142 kts | 65° |
| 2026-04-20 13:47 | 44.39894 | 8.72898 | 1676 ft | 143 kts | 65° |
| 2026-04-20 13:47 | 44.40378 | 8.74080 | 1462 ft | 140 kts | 64° |
| 2026-04-20 13:47 | 44.40863 | 8.75269 | 1272 ft | 139 kts | 64° |
| 2026-04-20 13:47 | 44.40931 | 8.75433 | 1240 ft | 140 kts | 65° |
| 2026-04-20 13:48 | 44.40941 | 8.75457 | 1236 ft | 140 kts | 65° |
| 2026-04-20 13:48 | 44.41272 | 8.76322 | 1096 ft | 139 kts | 72° |
| 2026-04-20 13:48 | 44.41534 | 8.77611 | 916 ft | 134 kts | 80° |
| 2026-04-20 13:48 | 44.41708 | 8.78868 | 733 ft | 135 kts | 85° |
| 2026-04-20 13:49 | 44.41788 | 8.80153 | 515 ft | 137 kts | 88° |
| 2026-04-20 13:49 | 44.41749 | 8.81468 | 291 ft | 133 kts | 102° |
| 2026-04-20 13:49 | 44.41496 | 8.82707 | 84 ft | 132 kts | 108° |
| 2026-04-20 13:49 | 44.41269 | 8.83861 | 21 ft | 109 kts | 108° |
| 2026-04-20 13:50 | 44.41132 | 8.84495 | 21 ft | 32 kts | 107° |
| 2026-04-20 13:50 | 44.41080 | 8.84792 | 19 ft | 24 kts | 99° |
| 2026-04-20 13:50 | 44.41114 | 8.84859 | 19 ft | 5 kts | 17° |
| 2026-04-20 13:50 | 44.41141 | 8.84876 | 19 ft | 3 kts | 26° |
| 2026-04-20 13:51 | 44.41201 | 8.84905 | 20 ft | 16 kts | 13° |
| 2026-04-20 13:51 | 44.41319 | 8.84946 | 20 ft | 17 kts | 5° |
| 2026-04-20 13:51 | 44.41378 | 8.84811 | 20 ft | 19 kts | 287° |
| 2026-04-20 13:51 | 44.41359 | 8.84726 | 20 ft | 9 kts | 202° |
| 2026-04-20 13:52 | 44.41319 | 8.84710 | 22 ft | 0 kts | 195° |